createdAt,value
2022-09-20T00:02:03.393Z,7.03
2022-09-20T00:04:31.518Z,5.90
2022-09-20T00:06:59.159Z,4.60
2022-09-20T00:09:27.548Z,9.90
2022-09-20T00:11:55.208Z,3.47
2022-09-20T00:14:23.220Z,5.07
2022-09-20T00:16:50.983Z,8.03
2022-09-20T00:19:23.200Z,4.13
2022-09-20T00:21:50.834Z,4.60
2022-09-20T00:24:19.469Z,5.83
2022-09-20T00:26:47.105Z,9.03
2022-09-20T00:29:15.179Z,3.77
2022-09-20T00:31:43.114Z,4.77
2022-09-20T00:34:29.584Z,5.07
2022-09-20T00:36:58.857Z,5.67
2022-09-20T00:39:27.046Z,6.00
2022-09-20T00:41:54.689Z,3.77
2022-09-20T00:44:47.961Z,8.20
2022-09-20T00:47:23.428Z,7.60
2022-09-20T00:49:54.638Z,6.33
2022-09-20T00:52:24.873Z,8.20
2022-09-20T00:54:52.931Z,7.30
2022-09-20T00:57:20.810Z,5.53
2022-09-20T00:59:50.232Z,6.67
2022-09-20T01:02:21.220Z,5.60
2022-09-20T01:04:50.381Z,6.40
2022-09-20T01:07:23.004Z,7.57
2022-09-20T01:09:53.092Z,6.70
2022-09-20T01:12:23.134Z,5.37
2022-09-20T01:14:53.425Z,10.37
2022-09-20T01:17:26.082Z,15.97
2022-09-20T01:20:08.184Z,14.37
2022-09-20T01:22:45.624Z,10.50
2022-09-20T01:25:18.740Z,21.60
2022-09-20T01:27:50.171Z,10.40
2022-09-20T01:30:20.794Z,13.77
2022-09-20T01:33:12.833Z,8.87
2022-09-20T01:35:42.881Z,6.73
2022-09-20T01:38:24.843Z,5.37
2022-09-20T01:41:04.042Z,6.13
2022-09-20T01:43:38.387Z,6.77
2022-09-20T01:46:21.314Z,7.43
2022-09-20T01:48:52.045Z,6.40
2022-09-20T01:51:52.216Z,8.13
2022-09-20T01:54:50.752Z,5.33
2022-09-20T01:57:48.287Z,10.93
2022-09-20T02:00:22.840Z,4.80
2022-09-20T02:03:14.529Z,6.47
2022-09-20T02:05:56.195Z,5.50
2022-09-20T02:08:52.496Z,4.63
2022-09-20T02:11:22.098Z,4.83
2022-09-20T02:14:21.364Z,8.73
2022-09-20T02:16:56.746Z,6.93
2022-09-20T02:19:42.846Z,4.40
2022-09-20T02:22:25.741Z,8.73
2022-09-20T02:25:02.821Z,8.10
2022-09-20T02:27:41.581Z,7.53
2022-09-20T02:30:20.996Z,13.00
2022-09-20T02:33:13.964Z,5.47
2022-09-20T02:35:51.722Z,5.30
2022-09-20T02:38:43.038Z,7.10
2022-09-20T02:41:32.899Z,3.83
2022-09-20T02:44:08.823Z,3.70
2022-09-20T02:46:44.877Z,6.80
2022-09-20T02:49:23.623Z,6.27
2022-09-20T02:51:57.546Z,3.40
2022-09-20T02:54:35.281Z,5.57
2022-09-20T02:57:15.421Z,7.10
2022-09-20T02:59:48.281Z,2.10
2022-09-20T03:02:25.109Z,4.80
2022-09-20T03:05:09.925Z,4.07
2022-09-20T03:07:57.779Z,6.40
2022-09-20T03:10:32.935Z,3.30
2022-09-20T03:13:23.823Z,9.13
2022-09-20T03:16:04.191Z,5.97
2022-09-20T03:18:40.125Z,6.63
2022-09-20T03:21:25.040Z,7.00
2022-09-20T03:24:05.043Z,3.10
2022-09-20T03:26:44.889Z,5.53
2022-09-20T03:29:28.408Z,5.20
2022-09-20T03:32:13.362Z,6.93
2022-09-20T03:34:54.091Z,6.13
2022-09-20T03:37:47.583Z,4.73
2022-09-20T03:40:59.842Z,5.57
2022-09-20T03:43:41.215Z,7.37
2022-09-20T03:46:19.161Z,11.83
2022-09-20T03:49:05.697Z,8.70
2022-09-20T03:51:40.265Z,5.70
2022-09-20T03:54:44.009Z,4.80
2022-09-20T03:57:36.408Z,3.93
2022-09-20T04:00:23.961Z,5.07
2022-09-20T04:03:24.266Z,3.43
2022-09-20T04:06:02.838Z,5.03
2022-09-20T04:08:49.776Z,4.60
2022-09-20T04:11:27.200Z,4.33
2022-09-20T04:14:00.658Z,4.10
2022-09-20T04:16:37.852Z,4.50
2022-09-20T04:19:16.743Z,3.07
2022-09-20T04:21:51.336Z,6.57
2022-09-20T04:24:24.865Z,6.87
2022-09-20T04:27:00.964Z,11.60
2022-09-20T04:29:37.549Z,15.30
2022-09-20T04:32:16.871Z,13.50
2022-09-20T04:35:07.364Z,14.40
2022-09-20T04:37:38.959Z,10.00
2022-09-20T04:40:22.123Z,15.60
2022-09-20T04:43:27.653Z,24.13
2022-09-20T04:46:09.699Z,13.53
2022-09-20T04:49:20.371Z,16.50
2022-09-20T04:52:25.815Z,12.53
2022-09-20T04:55:40.460Z,12.80
2022-09-20T04:58:56.691Z,17.70
2022-09-20T05:02:07.764Z,9.77
2022-09-20T05:05:02.882Z,11.90
2022-09-20T05:08:17.116Z,8.90
2022-09-20T05:11:30.447Z,20.77
2022-09-20T05:14:22.950Z,11.13
2022-09-20T05:17:14.809Z,7.97
2022-09-20T05:19:56.467Z,12.10
2022-09-20T05:22:48.256Z,18.43
2022-09-20T05:25:39.436Z,16.37
2022-09-20T05:28:13.652Z,8.17
2022-09-20T05:30:48.420Z,6.50
2022-09-20T05:33:23.876Z,7.93
2022-09-20T05:36:03.688Z,7.87
2022-09-20T05:38:40.804Z,8.10
2022-09-20T05:41:19.467Z,6.87
2022-09-20T05:43:56.026Z,13.27
2022-09-20T05:46:41.514Z,9.23
2022-09-20T05:49:21.871Z,11.63
2022-09-20T05:52:15.804Z,6.37
2022-09-20T05:55:14.574Z,7.20
2022-09-20T05:57:57.626Z,10.97
2022-09-20T06:00:31.911Z,9.07
2022-09-20T06:03:11.556Z,3.90
2022-09-20T06:05:51.703Z,4.53
2022-09-20T06:08:50.183Z,10.73
2022-09-20T06:11:46.745Z,6.20
2022-09-20T06:14:29.281Z,7.17
2022-09-20T06:17:06.572Z,5.80
2022-09-20T06:19:42.449Z,7.37
2022-09-20T06:22:17.783Z,7.27
2022-09-20T06:24:51.202Z,9.07
2022-09-20T06:27:23.185Z,3.00
2022-09-20T06:29:56.145Z,5.90
2022-09-20T06:32:24.432Z,8.13
2022-09-20T06:34:55.244Z,4.90
2022-09-20T06:37:55.919Z,6.70
2022-09-20T06:40:57.809Z,6.10
2022-09-20T06:43:25.707Z,9.57
2022-09-20T06:45:54.056Z,7.80
2022-09-20T06:48:22.041Z,11.83
2022-09-20T06:50:52.293Z,5.50
2022-09-20T06:53:31.131Z,2.40
2022-09-20T06:55:59.866Z,4.90
2022-09-20T06:58:28.316Z,5.47
2022-09-20T07:00:57.035Z,5.87
2022-09-20T07:03:25.512Z,4.77
2022-09-20T07:05:54.759Z,3.30
2022-09-20T07:08:22.768Z,4.43
2022-09-20T07:10:51.415Z,6.47
2022-09-20T07:13:20.888Z,5.90
2022-09-20T07:15:49.280Z,2.30
2022-09-20T07:18:17.300Z,5.17
2022-09-20T07:20:45.309Z,4.00
2022-09-20T07:23:16.224Z,4.63
2022-09-20T07:25:45.423Z,3.80
2022-09-20T07:28:13.360Z,2.17
2022-09-20T07:30:41.768Z,3.23
2022-09-20T07:33:10.489Z,5.73
2022-09-20T07:35:38.713Z,5.20
2022-09-20T07:38:07.002Z,3.17
2022-09-20T07:40:36.239Z,4.00
2022-09-20T07:43:04.418Z,3.70
2022-09-20T07:45:32.687Z,3.10
2022-09-20T07:48:05.300Z,7.57
2022-09-20T07:50:33.914Z,4.43
2022-09-20T07:53:01.923Z,7.90
2022-09-20T07:55:31.431Z,12.73
2022-09-20T07:58:00.748Z,4.83
2022-09-20T08:00:28.592Z,10.63
2022-09-20T08:03:01.903Z,9.73
2022-09-20T08:05:30.204Z,6.80
2022-09-20T08:07:59.785Z,5.83
2022-09-20T08:10:28.520Z,7.20
2022-09-20T08:15:49.302Z,7.80
2022-09-20T08:18:20.535Z,4.90
2022-09-20T08:20:48.828Z,6.20
2022-09-20T08:23:24.284Z,3.90
2022-09-20T08:25:52.687Z,10.90
2022-09-20T08:28:20.550Z,6.20
2022-09-20T08:30:50.470Z,4.07
2022-09-20T08:33:18.306Z,6.70
2022-09-20T08:35:50.464Z,7.23
2022-09-20T08:41:11.865Z,6.07
2022-09-20T08:43:45.638Z,13.83
2022-09-20T08:46:23.309Z,6.73
2022-09-20T08:48:52.657Z,2.13
2022-09-20T08:51:23.330Z,5.13
2022-09-20T08:53:57.509Z,4.87
2022-09-20T08:56:29.981Z,4.27
2022-09-20T08:59:01.384Z,7.70
2022-09-20T09:01:32.503Z,5.90
2022-09-20T09:04:12.503Z,6.07
2022-09-20T09:06:41.528Z,5.10
2022-09-20T09:09:15.748Z,7.67
2022-09-20T09:11:46.066Z,4.43
2022-09-20T09:14:37.926Z,5.93
2022-09-20T09:17:07.680Z,5.53
2022-09-20T09:19:45.134Z,4.47
2022-09-20T09:22:19.127Z,5.90
2022-09-20T09:24:47.163Z,3.83
2022-09-20T09:27:17.645Z,4.73
2022-09-20T09:29:52.543Z,10.60
2022-09-20T09:32:24.474Z,4.77
2022-09-20T09:34:53.185Z,8.33
2022-09-20T09:37:30.576Z,4.00
2022-09-20T09:40:12.146Z,5.27
2022-09-20T09:42:50.205Z,7.10
2022-09-20T09:45:31.976Z,4.93
2022-09-20T09:48:03.096Z,3.93
2022-09-20T09:50:34.040Z,5.97
2022-09-20T09:53:07.686Z,3.73
2022-09-20T09:55:52.712Z,5.63
2022-09-20T09:58:33.385Z,3.33
2022-09-20T10:01:08.125Z,3.97
2022-09-20T10:03:51.274Z,5.43
2022-09-20T10:06:27.812Z,3.20
2022-09-20T10:09:11.076Z,1.70
2022-09-20T10:12:01.976Z,2.80
2022-09-20T10:14:47.397Z,2.87
2022-09-20T10:17:35.486Z,3.03
2022-09-20T10:24:03.952Z,3.73
2022-09-20T10:27:00.732Z,4.23
2022-09-20T10:29:40.687Z,2.80
2022-09-20T10:32:23.232Z,2.77
2022-09-20T10:35:27.022Z,5.00
2022-09-20T10:38:13.160Z,4.30
2022-09-20T10:41:13.683Z,3.70
2022-09-20T10:44:02.826Z,2.50
2022-09-20T10:46:43.025Z,5.93
2022-09-20T10:49:24.152Z,1.43
2022-09-20T10:52:04.782Z,1.93
2022-09-20T10:54:47.979Z,2.47
2022-09-20T10:57:51.023Z,1.53
2022-09-20T11:00:22.499Z,2.53
2022-09-20T11:03:05.497Z,3.70
2022-09-20T11:05:48.098Z,2.50
2022-09-20T11:08:22.819Z,1.67
2022-09-20T11:10:55.951Z,4.30
2022-09-20T11:13:31.584Z,2.00
2022-09-20T11:16:04.651Z,7.07
2022-09-20T11:18:40.298Z,7.50
2022-09-20T11:21:13.235Z,4.53
2022-09-20T11:23:51.251Z,1.97
2022-09-20T11:30:09.648Z,5.63
2022-09-20T11:32:42.880Z,2.50
2022-09-20T11:35:25.118Z,6.00
2022-09-20T11:38:00.578Z,2.07
2022-09-20T11:40:33.906Z,2.90
2022-09-20T11:43:06.438Z,4.07
2022-09-20T11:45:39.027Z,3.30
2022-09-20T11:48:12.394Z,5.00
2022-09-20T11:51:14.612Z,5.10
2022-09-20T11:54:10.567Z,4.67
2022-09-20T11:56:40.329Z,4.37
2022-09-20T11:59:24.395Z,3.93
2022-09-20T12:01:58.321Z,1.60
2022-09-20T12:04:33.902Z,6.67
2022-09-20T12:07:43.983Z,4.50
2022-09-20T12:10:24.855Z,2.50
2022-09-20T12:12:59.452Z,2.47
2022-09-20T12:15:31.231Z,4.90
2022-09-20T12:18:37.510Z,3.00
2022-09-20T12:21:16.974Z,2.50
2022-09-20T12:24:19.007Z,4.00
2022-09-20T12:26:49.137Z,3.63
2022-09-20T12:29:50.657Z,5.83
2022-09-20T12:32:56.796Z,4.30
2022-09-20T12:36:14.895Z,4.40
2022-09-20T12:39:21.825Z,3.60
2022-09-20T12:41:55.678Z,1.37
2022-09-20T12:44:42.435Z,3.27
2022-09-20T12:47:21.340Z,15.33
2022-09-20T12:50:11.387Z,2.23
2022-09-20T12:53:00.667Z,5.03
2022-09-20T12:55:40.367Z,4.93
2022-09-20T12:58:21.038Z,2.33
2022-09-20T13:00:51.256Z,5.00
2022-09-20T13:03:29.516Z,2.50
2022-09-20T13:06:27.488Z,7.70
2022-09-20T13:09:04.594Z,3.27
2022-09-20T13:11:41.431Z,1.93
2022-09-20T13:14:14.546Z,2.20
2022-09-20T13:16:52.640Z,2.13
2022-09-20T13:19:25.941Z,8.13
2022-09-20T13:21:59.603Z,3.00
2022-09-20T13:24:29.963Z,2.13
2022-09-20T13:27:06.807Z,4.77
2022-09-20T13:29:42.330Z,2.90
2022-09-20T13:32:18.769Z,2.80
2022-09-20T13:34:47.018Z,3.50
2022-09-20T13:37:23.506Z,2.67
2022-09-20T13:39:54.736Z,2.50
2022-09-20T13:42:24.669Z,4.83
2022-09-20T13:44:53.188Z,4.87
2022-09-20T13:47:26.629Z,1.70
2022-09-20T13:50:00.251Z,3.90
2022-09-20T13:52:30.852Z,2.33
2022-09-20T13:54:58.698Z,2.30
2022-09-20T13:57:31.402Z,3.47
2022-09-20T14:00:01.734Z,4.60
2022-09-20T14:02:32.970Z,5.03
2022-09-20T14:05:02.967Z,2.20
2022-09-20T14:07:31.684Z,1.17
2022-09-20T14:10:00.270Z,2.20
2022-09-20T14:12:30.176Z,2.70
2022-09-20T14:14:59.507Z,4.73
2022-09-20T14:17:33.435Z,2.50
2022-09-20T14:20:01.684Z,4.03
2022-09-20T14:22:30.735Z,2.50
2022-09-20T14:25:02.125Z,1.67
2022-09-20T14:27:32.739Z,2.10
2022-09-20T14:30:00.593Z,1.60
2022-09-20T14:32:40.441Z,2.60
2022-09-20T14:35:16.876Z,1.50
2022-09-20T14:37:47.816Z,2.20
2022-09-20T14:40:21.772Z,2.43
2022-09-20T14:42:53.840Z,1.30
2022-09-20T14:45:28.386Z,4.03
2022-09-20T14:48:08.073Z,1.83
2022-09-20T14:50:40.575Z,6.50
2022-09-20T14:53:27.041Z,3.80
2022-09-20T14:56:00.904Z,3.53
2022-09-20T14:58:31.336Z,8.57
2022-09-20T15:01:05.102Z,1.60
2022-09-20T15:03:38.919Z,3.13
2022-09-20T15:06:10.844Z,2.60
2022-09-20T15:08:42.882Z,1.57
2022-09-20T15:11:15.099Z,10.43
2022-09-20T15:13:44.781Z,2.93
2022-09-20T15:16:14.942Z,1.37
2022-09-20T15:18:44.584Z,1.20
2022-09-20T15:21:13.423Z,1.23
2022-09-20T15:23:41.998Z,6.07
2022-09-20T15:26:13.623Z,1.97
2022-09-20T15:28:41.713Z,2.67
2022-09-20T15:31:11.750Z,1.87
2022-09-20T15:33:39.616Z,1.17
2022-09-20T15:36:08.983Z,1.57
2022-09-20T15:38:36.797Z,2.20
2022-09-20T15:41:04.752Z,2.23
2022-09-20T15:43:33.470Z,5.13
2022-09-20T15:46:17.724Z,3.13
2022-09-20T15:48:47.129Z,2.30
2022-09-20T15:51:16.188Z,3.90
2022-09-20T15:53:46.191Z,2.00
2022-09-20T15:56:21.106Z,3.43
2022-09-20T15:58:52.571Z,1.77
2022-09-20T16:01:20.559Z,6.53
2022-09-20T16:03:51.243Z,3.17
2022-09-20T16:06:19.455Z,1.33
2022-09-20T16:08:48.076Z,1.60
2022-09-20T16:11:22.254Z,5.00
2022-09-20T16:13:55.148Z,3.43
2022-09-20T16:16:23.191Z,1.57
2022-09-20T16:19:10.847Z,4.20
2022-09-20T16:21:40.640Z,3.33
2022-09-20T16:24:09.798Z,3.37
2022-09-20T16:26:38.319Z,5.33
2022-09-20T16:29:07.506Z,1.80
2022-09-20T16:31:40.253Z,1.80
2022-09-20T16:34:16.893Z,4.80
2022-09-20T16:36:45.839Z,1.63
2022-09-20T16:39:15.284Z,4.10
2022-09-20T16:41:44.386Z,1.57
2022-09-20T16:44:13.126Z,2.50
2022-09-20T16:46:41.810Z,2.90
2022-09-20T16:49:12.547Z,3.07
2022-09-20T16:51:43.078Z,4.93
2022-09-20T16:54:12.977Z,2.07
2022-09-20T16:56:42.879Z,3.20
2022-09-20T16:59:10.786Z,2.50
2022-09-20T17:01:39.716Z,2.33
2022-09-20T17:04:09.073Z,4.47
2022-09-20T17:06:39.622Z,4.07
2022-09-20T17:09:08.600Z,12.73
2022-09-20T17:11:43.754Z,3.13
2022-09-20T17:14:11.619Z,4.70
2022-09-20T17:20:08.736Z,5.30
2022-09-20T17:22:37.856Z,2.40
2022-09-20T17:25:06.271Z,4.77
2022-09-20T17:27:34.444Z,4.87
2022-09-20T17:30:02.714Z,4.50
2022-09-20T17:32:30.946Z,5.00
2022-09-20T17:38:41.297Z,3.73
2022-09-20T17:41:13.976Z,4.67
2022-09-20T17:43:42.904Z,6.77
2022-09-20T17:46:13.736Z,9.80
2022-09-20T17:48:49.294Z,7.13
2022-09-20T17:51:18.658Z,6.97
2022-09-20T17:53:48.448Z,10.87
2022-09-20T17:56:16.831Z,9.17
2022-09-20T17:58:45.124Z,8.63
2022-09-20T18:01:15.398Z,9.30
2022-09-20T18:03:46.743Z,9.10
2022-09-20T18:10:16.106Z,12.57
2022-09-20T18:12:45.258Z,16.53
2022-09-20T18:15:13.210Z,19.83
2022-09-20T18:17:41.723Z,10.40
2022-09-20T18:20:10.495Z,7.77
2022-09-20T18:22:38.742Z,11.77
2022-09-20T18:25:07.909Z,13.17
2022-09-20T18:27:38.322Z,9.87
2022-09-20T18:30:08.310Z,11.87
2022-09-20T18:32:36.222Z,8.70
2022-09-20T18:35:04.306Z,9.07
2022-09-20T18:37:32.740Z,8.17
2022-09-20T18:40:01.044Z,12.40
2022-09-20T18:42:29.025Z,10.43
2022-09-20T18:44:59.221Z,9.83
2022-09-20T18:47:27.571Z,10.40
2022-09-20T18:49:55.506Z,16.33
2022-09-20T18:52:24.615Z,14.30
2022-09-20T18:54:55.200Z,11.33
2022-09-20T18:57:23.932Z,11.50
2022-09-20T18:59:54.598Z,9.93
2022-09-20T19:02:42.068Z,13.83
2022-09-20T19:05:26.357Z,7.33
2022-09-20T19:08:08.602Z,6.70
2022-09-20T19:10:43.338Z,7.10
2022-09-20T19:13:39.511Z,5.67
2022-09-20T19:16:19.198Z,7.20
2022-09-20T19:19:10.172Z,6.90
2022-09-20T19:21:47.394Z,8.30
2022-09-20T19:24:23.919Z,10.90
2022-09-20T19:26:53.081Z,12.03
2022-09-20T19:33:02.954Z,8.13
2022-09-20T19:35:38.230Z,7.90
2022-09-20T19:38:16.067Z,5.83
2022-09-20T19:40:50.337Z,6.40
2022-09-20T19:43:35.747Z,10.10
2022-09-20T19:46:13.731Z,11.27
2022-09-20T19:48:47.248Z,14.53
2022-09-20T19:51:17.168Z,10.37
2022-09-20T19:53:45.864Z,15.90
2022-09-20T19:56:24.870Z,17.17
2022-09-20T19:58:56.153Z,15.67
2022-09-20T20:01:26.130Z,14.57
2022-09-20T20:03:55.878Z,17.30
2022-09-20T20:06:32.418Z,13.57
2022-09-20T20:09:08.327Z,18.33
2022-09-20T20:11:46.613Z,12.87
2022-09-20T20:14:24.103Z,16.07
2022-09-20T20:17:04.131Z,14.27
2022-09-20T20:19:51.447Z,11.40
2022-09-20T20:22:36.107Z,9.70
2022-09-20T20:25:04.445Z,12.00
2022-09-20T20:27:33.026Z,11.60
2022-09-20T20:30:00.955Z,14.03
2022-09-20T20:32:29.211Z,10.10
2022-09-20T20:34:57.063Z,8.67
2022-09-20T20:37:28.571Z,7.30
2022-09-20T20:39:56.477Z,7.80
2022-09-20T20:42:24.903Z,10.83
2022-09-20T20:44:53.071Z,14.20
2022-09-20T20:47:21.356Z,12.17
2022-09-20T20:49:52.603Z,10.33
2022-09-20T20:52:21.074Z,11.97
2022-09-20T20:54:50.547Z,17.40
2022-09-20T20:57:19.393Z,15.93
2022-09-20T20:59:47.463Z,19.63
2022-09-20T21:02:15.839Z,18.40
2022-09-20T21:04:43.922Z,20.90
2022-09-20T21:07:12.546Z,46.27
2022-09-20T21:09:40.542Z,16.47
2022-09-20T21:12:09.967Z,21.73
2022-09-20T21:14:38.335Z,8.93
2022-09-20T21:17:06.733Z,10.93
2022-09-20T21:19:35.159Z,9.00
2022-09-20T21:22:03.445Z,8.83
2022-09-20T21:24:31.394Z,10.40
2022-09-20T21:26:59.737Z,9.63
2022-09-20T21:29:29.021Z,8.10
2022-09-20T21:31:57.263Z,9.83
2022-09-20T21:34:25.365Z,16.63
2022-09-20T21:36:53.965Z,13.30
2022-09-20T21:39:21.889Z,14.53
2022-09-20T21:41:49.879Z,12.83
2022-09-20T21:44:17.746Z,17.60
2022-09-20T21:46:48.536Z,16.07
2022-09-20T21:49:17.886Z,13.10
2022-09-20T21:51:46.238Z,19.00
2022-09-20T21:54:14.916Z,16.93
2022-09-20T21:56:43.181Z,30.07
2022-09-20T21:59:11.207Z,17.83
2022-09-20T22:01:41.545Z,29.37
2022-09-20T22:04:12.829Z,32.20
2022-09-20T22:06:42.889Z,15.00
2022-09-20T22:09:12.688Z,18.60
2022-09-20T22:11:43.693Z,17.23
2022-09-20T22:14:13.034Z,42.63
2022-09-20T22:16:42.931Z,19.13
2022-09-20T22:19:14.003Z,20.87
2022-09-20T22:21:44.394Z,59.53
2022-09-20T22:24:13.930Z,116.50
2022-09-20T22:26:44.531Z,15.23
2022-09-20T22:29:12.937Z,19.13
2022-09-20T22:31:45.535Z,20.40
2022-09-20T22:34:18.460Z,18.57
2022-09-20T22:36:47.350Z,30.60
2022-09-20T22:39:15.724Z,117.97
2022-09-20T22:41:44.987Z,27.93
2022-09-20T22:44:13.410Z,35.57
2022-09-20T22:46:42.125Z,47.00
2022-09-20T22:49:10.540Z,30.30
2022-09-20T22:51:40.236Z,99.83
2022-09-20T22:54:09.622Z,154.83
2022-09-20T22:56:38.746Z,118.23
2022-09-20T22:59:09.219Z,166.23
2022-09-20T23:01:39.073Z,25.97
2022-09-20T23:04:09.147Z,32.70
2022-09-20T23:06:40.906Z,139.00
2022-09-20T23:09:10.871Z,27.37
2022-09-20T23:11:42.351Z,102.57
2022-09-20T23:14:12.799Z,37.70
2022-09-20T23:16:41.779Z,95.90
2022-09-20T23:19:10.095Z,53.73
2022-09-20T23:21:41.213Z,154.87
2022-09-20T23:24:11.379Z,64.07
2022-09-20T23:26:40.685Z,114.83
2022-09-20T23:29:10.998Z,141.43
2022-09-20T23:31:40.854Z,223.83
2022-09-20T23:34:10.676Z,282.30
2022-09-20T23:36:42.257Z,143.70
2022-09-20T23:39:11.706Z,203.27
2022-09-20T23:41:41.838Z,54.93
2022-09-20T23:44:11.504Z,113.47
2022-09-20T23:46:40.392Z,12.70
2022-09-20T23:49:09.360Z,303.40
2022-09-20T23:51:39.254Z,80.53
2022-09-20T23:54:07.209Z,31.60
2022-09-20T23:56:36.263Z,188.53
2022-09-20T23:59:04.126Z,188.17
